sensor_id;sensor_type;location;lat;lon;timestamp;pressure;altitude;pressure_sealevel;temperature;humidity
78615;BME280;67937;52.488;20.952;2023-04-30T00:00:33;100369.62;;;11.88;65.52
78615;BME280;67937;52.488;20.952;2023-04-30T00:03:23;100367.05;;;11.87;65.50
78615;BME280;67937;52.488;20.952;2023-04-30T00:05:51;100370.73;;;11.87;65.62
78615;BME280;67937;52.488;20.952;2023-04-30T00:08:19;100369.34;;;11.87;65.84
78615;BME280;67937;52.488;20.952;2023-04-30T00:10:47;100368.35;;;11.84;66.07
78615;BME280;67937;52.488;20.952;2023-04-30T00:13:15;100368.00;;;11.82;66.39
78615;BME280;67937;52.488;20.952;2023-04-30T00:15:44;100363.02;;;11.78;66.61
78615;BME280;67937;52.488;20.952;2023-04-30T00:18:12;100365.45;;;11.80;66.76
78615;BME280;67937;52.488;20.952;2023-04-30T00:20:40;100361.58;;;11.80;66.86
78615;BME280;67937;52.488;20.952;2023-04-30T00:23:08;100366.00;;;11.78;67.19
78615;BME280;67937;52.488;20.952;2023-04-30T00:25:36;100368.24;;;11.77;67.49
78615;BME280;67937;52.488;20.952;2023-04-30T00:28:04;100367.41;;;11.80;67.44
78615;BME280;67937;52.488;20.952;2023-04-30T00:30:32;100364.77;;;11.80;67.51
78615;BME280;67937;52.488;20.952;2023-04-30T00:33:00;100368.64;;;11.76;68.68
78615;BME280;67937;52.488;20.952;2023-04-30T00:35:29;100370.54;;;11.77;68.02
78615;BME280;67937;52.488;20.952;2023-04-30T00:37:57;100372.36;;;11.78;67.80
78615;BME280;67937;52.488;20.952;2023-04-30T00:40:25;100377.67;;;11.78;68.25
78615;BME280;67937;52.488;20.952;2023-04-30T00:42:53;100377.84;;;11.78;68.73
78615;BME280;67937;52.488;20.952;2023-04-30T00:45:22;100381.39;;;11.76;68.67
78615;BME280;67937;52.488;20.952;2023-04-30T00:47:50;100379.55;;;11.77;68.58
78615;BME280;67937;52.488;20.952;2023-04-30T00:50:18;100380.66;;;11.76;68.77
78615;BME280;67937;52.488;20.952;2023-04-30T00:52:46;100381.34;;;11.79;68.79
78615;BME280;67937;52.488;20.952;2023-04-30T00:55:15;100379.57;;;11.81;69.76
78615;BME280;67937;52.488;20.952;2023-04-30T00:57:44;100381.58;;;11.78;70.57
78615;BME280;67937;52.488;20.952;2023-04-30T01:00:12;100382.23;;;11.72;70.32
78615;BME280;67937;52.488;20.952;2023-04-30T01:02:40;100379.20;;;11.71;70.76
78615;BME280;67937;52.488;20.952;2023-04-30T01:05:09;100381.01;;;11.70;70.54
78615;BME280;67937;52.488;20.952;2023-04-30T01:07:38;100381.79;;;11.71;70.42
78615;BME280;67937;52.488;20.952;2023-04-30T01:10:12;100384.34;;;11.72;70.09
78615;BME280;67937;52.488;20.952;2023-04-30T01:15:42;100385.33;;;11.73;69.94
78615;BME280;67937;52.488;20.952;2023-04-30T01:18:17;100383.95;;;11.73;69.80
78615;BME280;67937;52.488;20.952;2023-04-30T01:21:04;100387.19;;;11.75;69.77
78615;BME280;67937;52.488;20.952;2023-04-30T01:26:33;100388.98;;;11.76;69.89
78615;BME280;67937;52.488;20.952;2023-04-30T01:29:13;100392.53;;;11.76;70.02
78615;BME280;67937;52.488;20.952;2023-04-30T01:31:43;100399.05;;;11.74;70.11
78615;BME280;67937;52.488;20.952;2023-04-30T01:34:11;100402.62;;;11.71;70.52
78615;BME280;67937;52.488;20.952;2023-04-30T01:37:05;100402.02;;;11.72;70.57
78615;BME280;67937;52.488;20.952;2023-04-30T01:45:48;100419.02;;;11.68;71.49
78615;BME280;67937;52.488;20.952;2023-04-30T01:49:07;100418.83;;;11.70;71.59
78615;BME280;67937;52.488;20.952;2023-04-30T01:51:33;100423.20;;;11.71;71.98
78615;BME280;67937;52.488;20.952;2023-04-30T01:54:14;100423.82;;;11.76;72.42
78615;BME280;67937;52.488;20.952;2023-04-30T01:56:51;100430.02;;;11.76;73.12
78615;BME280;67937;52.488;20.952;2023-04-30T01:59:21;100430.11;;;11.73;72.47
78615;BME280;67937;52.488;20.952;2023-04-30T02:01:50;100430.30;;;11.73;72.20
78615;BME280;67937;52.488;20.952;2023-04-30T02:04:18;100433.19;;;11.76;72.05
78615;BME280;67937;52.488;20.952;2023-04-30T02:06:46;100436.68;;;11.79;71.95
78615;BME280;67937;52.488;20.952;2023-04-30T02:09:14;100441.77;;;11.79;71.79
78615;BME280;67937;52.488;20.952;2023-04-30T02:11:42;100438.48;;;11.82;71.82
78615;BME280;67937;52.488;20.952;2023-04-30T02:14:11;100442.86;;;11.81;71.75
78615;BME280;67937;52.488;20.952;2023-04-30T02:16:39;100447.16;;;11.82;71.73
78615;BME280;67937;52.488;20.952;2023-04-30T02:19:07;100449.08;;;11.80;71.95
78615;BME280;67937;52.488;20.952;2023-04-30T02:21:35;100451.23;;;11.74;71.61
78615;BME280;67937;52.488;20.952;2023-04-30T02:24:03;100454.28;;;11.67;71.62
78615;BME280;67937;52.488;20.952;2023-04-30T02:26:31;100460.46;;;11.67;71.86
78615;BME280;67937;52.488;20.952;2023-04-30T02:28:59;100458.81;;;11.61;71.97
78615;BME280;67937;52.488;20.952;2023-04-30T02:31:27;100458.55;;;11.55;71.97
78615;BME280;67937;52.488;20.952;2023-04-30T02:33:55;100459.27;;;11.50;71.97
78615;BME280;67937;52.488;20.952;2023-04-30T02:36:23;100467.27;;;11.48;71.89
78615;BME280;67937;52.488;20.952;2023-04-30T02:38:51;100466.98;;;11.47;72.02
78615;BME280;67937;52.488;20.952;2023-04-30T02:41:20;100469.17;;;11.46;72.15
78615;BME280;67937;52.488;20.952;2023-04-30T02:43:48;100476.05;;;11.42;72.30
78615;BME280;67937;52.488;20.952;2023-04-30T02:46:17;100482.77;;;11.40;72.39
78615;BME280;67937;52.488;20.952;2023-04-30T02:48:45;100485.74;;;11.38;72.57
78615;BME280;67937;52.488;20.952;2023-04-30T02:51:13;100487.94;;;11.37;72.76
78615;BME280;67937;52.488;20.952;2023-04-30T02:53:41;100491.25;;;11.38;73.05
78615;BME280;67937;52.488;20.952;2023-04-30T02:56:09;100493.93;;;11.26;73.07
78615;BME280;67937;52.488;20.952;2023-04-30T02:58:37;100501.69;;;11.22;73.13
78615;BME280;67937;52.488;20.952;2023-04-30T03:01:05;100502.96;;;11.19;72.03
78615;BME280;67937;52.488;20.952;2023-04-30T03:03:33;100506.48;;;11.11;71.16
78615;BME280;67937;52.488;20.952;2023-04-30T03:06:01;100512.49;;;11.02;70.51
78615;BME280;67937;52.488;20.952;2023-04-30T03:08:29;100511.02;;;10.96;69.41
78615;BME280;67937;52.488;20.952;2023-04-30T03:10:57;100513.92;;;10.86;69.40
78615;BME280;67937;52.488;20.952;2023-04-30T03:13:25;100520.44;;;10.80;68.69
78615;BME280;67937;52.488;20.952;2023-04-30T03:16:01;100518.02;;;10.70;68.30
78615;BME280;67937;52.488;20.952;2023-04-30T03:18:30;100522.34;;;10.60;68.05
78615;BME280;67937;52.488;20.952;2023-04-30T03:20:58;100531.19;;;10.50;68.25
78615;BME280;67937;52.488;20.952;2023-04-30T03:23:26;100526.89;;;10.46;68.20
78615;BME280;67937;52.488;20.952;2023-04-30T03:25:55;100530.25;;;10.44;68.07
78615;BME280;67937;52.488;20.952;2023-04-30T03:28:23;100533.34;;;10.41;67.86
78615;BME280;67937;52.488;20.952;2023-04-30T03:30:51;100531.85;;;10.37;67.66
78615;BME280;67937;52.488;20.952;2023-04-30T03:33:19;100538.86;;;10.32;67.80
78615;BME280;67937;52.488;20.952;2023-04-30T03:35:47;100540.73;;;10.31;67.69
78615;BME280;67937;52.488;20.952;2023-04-30T03:38:17;100543.42;;;10.28;67.62
78615;BME280;67937;52.488;20.952;2023-04-30T03:40:45;100547.09;;;10.26;67.45
78615;BME280;67937;52.488;20.952;2023-04-30T03:43:14;100544.45;;;10.21;67.40
78615;BME280;67937;52.488;20.952;2023-04-30T03:45:42;100553.33;;;10.18;67.49
78615;BME280;67937;52.488;20.952;2023-04-30T03:48:10;100556.23;;;10.17;67.34
78615;BME280;67937;52.488;20.952;2023-04-30T03:50:38;100561.55;;;10.14;67.27
78615;BME280;67937;52.488;20.952;2023-04-30T03:53:06;100566.16;;;10.14;67.08
78615;BME280;67937;52.488;20.952;2023-04-30T03:55:34;100572.13;;;10.12;67.10
78615;BME280;67937;52.488;20.952;2023-04-30T03:58:02;100572.98;;;10.12;67.11
78615;BME280;67937;52.488;20.952;2023-04-30T04:00:30;100580.73;;;10.15;66.86
78615;BME280;67937;52.488;20.952;2023-04-30T04:02:59;100582.31;;;10.12;66.73
78615;BME280;67937;52.488;20.952;2023-04-30T04:05:27;100589.80;;;10.09;66.92
78615;BME280;67937;52.488;20.952;2023-04-30T04:07:55;100590.94;;;10.10;66.76
78615;BME280;67937;52.488;20.952;2023-04-30T04:10:23;100599.15;;;10.09;66.84
78615;BME280;67937;52.488;20.952;2023-04-30T04:12:51;100598.58;;;10.07;66.75
78615;BME280;67937;52.488;20.952;2023-04-30T04:15:19;100601.63;;;10.09;66.81
78615;BME280;67937;52.488;20.952;2023-04-30T04:17:47;100609.36;;;10.09;66.72
78615;BME280;67937;52.488;20.952;2023-04-30T04:20:15;100612.23;;;10.11;66.73
78615;BME280;67937;52.488;20.952;2023-04-30T04:22:43;100619.00;;;10.10;66.66
78615;BME280;67937;52.488;20.952;2023-04-30T04:25:11;100619.38;;;10.07;66.63
78615;BME280;67937;52.488;20.952;2023-04-30T04:27:40;100625.05;;;10.09;66.62
78615;BME280;67937;52.488;20.952;2023-04-30T04:30:08;100627.17;;;10.09;66.79
78615;BME280;67937;52.488;20.952;2023-04-30T04:32:37;100630.10;;;10.10;66.91
78615;BME280;67937;52.488;20.952;2023-04-30T04:35:15;100635.64;;;10.09;67.10
78615;BME280;67937;52.488;20.952;2023-04-30T04:37:44;100637.27;;;10.11;67.17
78615;BME280;67937;52.488;20.952;2023-04-30T04:40:12;100639.93;;;10.11;67.26
78615;BME280;67937;52.488;20.952;2023-04-30T04:42:40;100643.67;;;10.12;67.37
78615;BME280;67937;52.488;20.952;2023-04-30T04:45:09;100650.91;;;10.12;67.42
78615;BME280;67937;52.488;20.952;2023-04-30T04:47:37;100653.60;;;10.14;67.39
78615;BME280;67937;52.488;20.952;2023-04-30T04:50:06;100657.88;;;10.16;67.56
78615;BME280;67937;52.488;20.952;2023-04-30T04:52:34;100664.14;;;10.19;67.36
78615;BME280;67937;52.488;20.952;2023-04-30T04:55:03;100668.53;;;10.22;67.21
78615;BME280;67937;52.488;20.952;2023-04-30T04:57:31;100667.14;;;10.22;67.30
78615;BME280;67937;52.488;20.952;2023-04-30T04:59:59;100667.91;;;10.26;67.19
78615;BME280;67937;52.488;20.952;2023-04-30T05:02:27;100678.11;;;10.29;67.23
78615;BME280;67937;52.488;20.952;2023-04-30T05:04:56;100679.02;;;10.36;67.25
78615;BME280;67937;52.488;20.952;2023-04-30T05:07:24;100681.11;;;10.39;67.15
78615;BME280;67937;52.488;20.952;2023-04-30T05:09:52;100685.64;;;10.42;67.22
78615;BME280;67937;52.488;20.952;2023-04-30T05:12:20;100688.45;;;10.45;67.00
78615;BME280;67937;52.488;20.952;2023-04-30T05:14:48;100687.73;;;10.42;66.89
78615;BME280;67937;52.488;20.952;2023-04-30T05:17:16;100684.96;;;10.46;66.78
78615;BME280;67937;52.488;20.952;2023-04-30T05:19:44;100688.95;;;10.52;66.72
78615;BME280;67937;52.488;20.952;2023-04-30T05:22:14;100692.90;;;10.53;66.58
78615;BME280;67937;52.488;20.952;2023-04-30T05:24:42;100698.10;;;10.57;66.25
78615;BME280;67937;52.488;20.952;2023-04-30T05:27:10;100696.52;;;10.59;66.04
78615;BME280;67937;52.488;20.952;2023-04-30T05:29:38;100704.16;;;10.61;65.58
78615;BME280;67937;52.488;20.952;2023-04-30T05:32:06;100712.88;;;10.62;65.41
78615;BME280;67937;52.488;20.952;2023-04-30T05:34:34;100714.67;;;10.65;65.18
78615;BME280;67937;52.488;20.952;2023-04-30T05:37:02;100721.71;;;10.69;64.94
78615;BME280;67937;52.488;20.952;2023-04-30T05:39:30;100725.87;;;10.75;64.59
78615;BME280;67937;52.488;20.952;2023-04-30T05:41:58;100729.41;;;10.77;64.25
78615;BME280;67937;52.488;20.952;2023-04-30T05:44:27;100732.60;;;10.82;64.11
78615;BME280;67937;52.488;20.952;2023-04-30T05:46:56;100736.45;;;10.87;63.74
78615;BME280;67937;52.488;20.952;2023-04-30T05:49:26;100739.95;;;10.90;63.35
78615;BME280;67937;52.488;20.952;2023-04-30T05:51:55;100745.57;;;10.97;63.34
78615;BME280;67937;52.488;20.952;2023-04-30T05:54:23;100746.21;;;11.10;62.99
78615;BME280;67937;52.488;20.952;2023-04-30T05:56:51;100745.06;;;11.25;62.85
78615;BME280;67937;52.488;20.952;2023-04-30T05:59:19;100746.46;;;11.48;62.28
78615;BME280;67937;52.488;20.952;2023-04-30T06:01:47;100744.27;;;11.60;61.61
78615;BME280;67937;52.488;20.952;2023-04-30T06:04:15;100745.08;;;11.61;61.68
78615;BME280;67937;52.488;20.952;2023-04-30T06:06:43;100748.11;;;11.71;61.30
78615;BME280;67937;52.488;20.952;2023-04-30T06:09:11;100750.55;;;11.71;60.98
78615;BME280;67937;52.488;20.952;2023-04-30T06:11:40;100755.54;;;11.68;61.38
78615;BME280;67937;52.488;20.952;2023-04-30T06:14:09;100762.54;;;11.67;61.15
78615;BME280;67937;52.488;20.952;2023-04-30T06:16:37;100762.05;;;11.64;61.22
78615;BME280;67937;52.488;20.952;2023-04-30T06:19:05;100763.79;;;11.57;61.18
78615;BME280;67937;52.488;20.952;2023-04-30T06:21:33;100765.30;;;11.53;61.49
78615;BME280;67937;52.488;20.952;2023-04-30T06:24:01;100765.23;;;11.50;61.88
78615;BME280;67937;52.488;20.952;2023-04-30T06:26:29;100767.23;;;11.60;61.84
78615;BME280;67937;52.488;20.952;2023-04-30T06:28:57;100766.15;;;11.82;62.13
78615;BME280;67937;52.488;20.952;2023-04-30T06:31:25;100768.24;;;12.07;61.95
78615;BME280;67937;52.488;20.952;2023-04-30T06:33:53;100769.81;;;12.31;61.87
78615;BME280;67937;52.488;20.952;2023-04-30T06:36:21;100770.63;;;12.49;60.70
78615;BME280;67937;52.488;20.952;2023-04-30T06:38:49;100772.09;;;12.60;60.24
78615;BME280;67937;52.488;20.952;2023-04-30T06:41:17;100769.11;;;12.77;58.07
78615;BME280;67937;52.488;20.952;2023-04-30T06:43:46;100768.05;;;12.88;57.80
78615;BME280;67937;52.488;20.952;2023-04-30T06:46:14;100769.81;;;13.01;57.72
78615;BME280;67937;52.488;20.952;2023-04-30T06:48:42;100774.67;;;13.13;56.89
78615;BME280;67937;52.488;20.952;2023-04-30T06:51:10;100772.34;;;13.24;55.37
78615;BME280;67937;52.488;20.952;2023-04-30T06:53:38;100772.23;;;13.27;55.87
78615;BME280;67937;52.488;20.952;2023-04-30T06:56:07;100778.20;;;13.42;54.55
78615;BME280;67937;52.488;20.952;2023-04-30T06:58:35;100778.97;;;13.48;54.32
78615;BME280;67937;52.488;20.952;2023-04-30T07:01:03;100776.19;;;13.56;54.58
78615;BME280;67937;52.488;20.952;2023-04-30T07:03:31;100772.63;;;13.64;54.46
78615;BME280;67937;52.488;20.952;2023-04-30T07:05:59;100769.61;;;13.74;54.34
78615;BME280;67937;52.488;20.952;2023-04-30T07:08:27;100767.33;;;13.78;54.22
78615;BME280;67937;52.488;20.952;2023-04-30T07:10:55;100768.48;;;13.89;53.77
78615;BME280;67937;52.488;20.952;2023-04-30T07:13:24;100765.05;;;14.02;53.85
78615;BME280;67937;52.488;20.952;2023-04-30T07:15:53;100767.34;;;14.10;53.70
78615;BME280;67937;52.488;20.952;2023-04-30T07:18:21;100768.51;;;14.19;53.78
78615;BME280;67937;52.488;20.952;2023-04-30T07:20:49;100775.41;;;14.32;53.84
78615;BME280;67937;52.488;20.952;2023-04-30T07:23:17;100781.64;;;14.46;52.38
78615;BME280;67937;52.488;20.952;2023-04-30T07:25:46;100788.67;;;14.45;52.05
78615;BME280;67937;52.488;20.952;2023-04-30T07:28:14;100786.87;;;14.36;48.47
78615;BME280;67937;52.488;20.952;2023-04-30T07:30:42;100788.36;;;13.99;48.83
78615;BME280;67937;52.488;20.952;2023-04-30T07:33:11;100793.66;;;13.91;50.45
78615;BME280;67937;52.488;20.952;2023-04-30T07:35:39;100789.38;;;14.12;50.85
78615;BME280;67937;52.488;20.952;2023-04-30T07:38:07;100788.73;;;14.26;49.63
78615;BME280;67937;52.488;20.952;2023-04-30T07:40:35;100798.18;;;14.31;47.09
78615;BME280;67937;52.488;20.952;2023-04-30T07:43:03;100807.48;;;13.98;48.06
78615;BME280;67937;52.488;20.952;2023-04-30T07:45:32;100811.40;;;13.99;48.74
78615;BME280;67937;52.488;20.952;2023-04-30T07:48:00;100814.55;;;14.00;47.70
78615;BME280;67937;52.488;20.952;2023-04-30T07:50:28;100817.98;;;14.11;48.90
78615;BME280;67937;52.488;20.952;2023-04-30T07:53:00;100819.30;;;14.31;49.34
78615;BME280;67937;52.488;20.952;2023-04-30T07:55:28;100816.70;;;14.51;49.85
78615;BME280;67937;52.488;20.952;2023-04-30T07:57:56;100817.02;;;14.71;49.36
78615;BME280;67937;52.488;20.952;2023-04-30T08:00:25;100824.90;;;14.84;48.64
78615;BME280;67937;52.488;20.952;2023-04-30T08:02:54;100822.85;;;14.69;48.46
78615;BME280;67937;52.488;20.952;2023-04-30T08:05:22;100824.34;;;14.77;48.99
78615;BME280;67937;52.488;20.952;2023-04-30T08:07:50;100832.09;;;14.93;49.04
78615;BME280;67937;52.488;20.952;2023-04-30T08:10:19;100834.38;;;14.99;49.16
78615;BME280;67937;52.488;20.952;2023-04-30T08:12:47;100827.61;;;15.20;48.94
78615;BME280;67937;52.488;20.952;2023-04-30T08:15:15;100830.69;;;15.16;46.11
78615;BME280;67937;52.488;20.952;2023-04-30T08:17:44;100841.08;;;14.94;47.54
78615;BME280;67937;52.488;20.952;2023-04-30T08:20:13;100839.86;;;14.99;47.77
78615;BME280;67937;52.488;20.952;2023-04-30T08:22:41;100844.89;;;15.02;44.78
78615;BME280;67937;52.488;20.952;2023-04-30T08:25:10;100846.77;;;14.90;44.99
78615;BME280;67937;52.488;20.952;2023-04-30T08:27:38;100848.80;;;14.93;45.38
78615;BME280;67937;52.488;20.952;2023-04-30T08:30:07;100847.42;;;15.08;45.99
78615;BME280;67937;52.488;20.952;2023-04-30T08:32:36;100845.83;;;15.18;46.51
78615;BME280;67937;52.488;20.952;2023-04-30T08:35:04;100844.83;;;15.34;46.50
78615;BME280;67937;52.488;20.952;2023-04-30T08:37:33;100843.77;;;15.39;45.96
78615;BME280;67937;52.488;20.952;2023-04-30T08:40:01;100850.71;;;15.41;46.04
78615;BME280;67937;52.488;20.952;2023-04-30T08:42:35;100852.36;;;15.46;43.70
78615;BME280;67937;52.488;20.952;2023-04-30T08:45:04;100854.86;;;15.22;43.78
78615;BME280;67937;52.488;20.952;2023-04-30T08:47:33;100852.71;;;15.22;42.62
78615;BME280;67937;52.488;20.952;2023-04-30T08:50:01;100862.83;;;15.15;42.72
78615;BME280;67937;52.488;20.952;2023-04-30T08:52:33;100862.65;;;15.01;42.65
78615;BME280;67937;52.488;20.952;2023-04-30T08:55:06;100858.15;;;15.03;42.19
78615;BME280;67937;52.488;20.952;2023-04-30T08:57:35;100861.94;;;14.81;40.40
78615;BME280;67937;52.488;20.952;2023-04-30T09:00:04;100865.72;;;14.79;41.49
78615;BME280;67937;52.488;20.952;2023-04-30T09:02:33;100865.91;;;14.94;41.74
78615;BME280;67937;52.488;20.952;2023-04-30T09:05:02;100866.66;;;15.09;42.03
78615;BME280;67937;52.488;20.952;2023-04-30T09:07:34;100874.09;;;15.18;40.96
78615;BME280;67937;52.488;20.952;2023-04-30T09:10:04;100873.86;;;15.08;39.95
78615;BME280;67937;52.488;20.952;2023-04-30T09:12:41;100869.87;;;15.02;40.95
78615;BME280;67937;52.488;20.952;2023-04-30T09:15:11;100875.83;;;15.22;42.32
78615;BME280;67937;52.488;20.952;2023-04-30T09:17:39;100875.20;;;15.43;41.81
78615;BME280;67937;52.488;20.952;2023-04-30T09:20:11;100876.98;;;15.47;41.15
78615;BME280;67937;52.488;20.952;2023-04-30T09:22:41;100880.08;;;15.44;41.33
78615;BME280;67937;52.488;20.952;2023-04-30T09:25:09;100879.98;;;15.44;41.78
78615;BME280;67937;52.488;20.952;2023-04-30T09:27:38;100887.38;;;15.44;41.00
78615;BME280;67937;52.488;20.952;2023-04-30T09:30:07;100886.77;;;15.37;42.30
78615;BME280;67937;52.488;20.952;2023-04-30T09:32:53;100883.02;;;15.57;42.47
78615;BME280;67937;52.488;20.952;2023-04-30T09:35:32;100884.58;;;15.65;42.77
78615;BME280;67937;52.488;20.952;2023-04-30T09:38:01;100887.52;;;15.66;41.66
78615;BME280;67937;52.488;20.952;2023-04-30T09:40:35;100889.73;;;15.57;40.52
78615;BME280;67937;52.488;20.952;2023-04-30T09:43:03;100891.00;;;15.53;41.13
78615;BME280;67937;52.488;20.952;2023-04-30T09:45:39;100895.39;;;15.52;41.59
78615;BME280;67937;52.488;20.952;2023-04-30T09:48:08;100890.27;;;15.54;42.45
78615;BME280;67937;52.488;20.952;2023-04-30T09:50:38;100889.94;;;15.55;42.03
78615;BME280;67937;52.488;20.952;2023-04-30T09:53:08;100888.57;;;15.49;42.55
78615;BME280;67937;52.488;20.952;2023-04-30T09:55:36;100885.70;;;15.66;42.75
78615;BME280;67937;52.488;20.952;2023-04-30T09:58:05;100888.77;;;15.76;41.69
78615;BME280;67937;52.488;20.952;2023-04-30T10:00:35;100889.20;;;15.69;41.10
78615;BME280;67937;52.488;20.952;2023-04-30T10:03:11;100890.50;;;15.70;41.34
78615;BME280;67937;52.488;20.952;2023-04-30T10:05:47;100887.86;;;15.77;41.14
78615;BME280;67937;52.488;20.952;2023-04-30T10:10:57;100882.95;;;15.69;40.86
78615;BME280;67937;52.488;20.952;2023-04-30T10:13:31;100885.08;;;15.65;41.36
78615;BME280;67937;52.488;20.952;2023-04-30T10:16:07;100887.84;;;15.66;41.76
78615;BME280;67937;52.488;20.952;2023-04-30T10:18:39;100880.19;;;15.72;41.94
78615;BME280;67937;52.488;20.952;2023-04-30T10:21:11;100881.44;;;15.76;41.57
78615;BME280;67937;52.488;20.952;2023-04-30T10:23:40;100886.63;;;15.76;41.09
78615;BME280;67937;52.488;20.952;2023-04-30T10:26:09;100888.55;;;15.72;40.97
78615;BME280;67937;52.488;20.952;2023-04-30T10:28:39;100890.54;;;15.75;40.63
78615;BME280;67937;52.488;20.952;2023-04-30T10:31:08;100883.95;;;15.72;40.85
78615;BME280;67937;52.488;20.952;2023-04-30T10:33:41;100888.92;;;15.77;40.87
78615;BME280;67937;52.488;20.952;2023-04-30T10:36:23;100898.56;;;15.83;39.28
78615;BME280;67937;52.488;20.952;2023-04-30T10:38:54;100894.80;;;15.81;39.29
78615;BME280;67937;52.488;20.952;2023-04-30T10:41:25;100894.30;;;15.77;39.23
78615;BME280;67937;52.488;20.952;2023-04-30T10:43:57;100893.68;;;15.80;38.90
78615;BME280;67937;52.488;20.952;2023-04-30T10:46:28;100890.17;;;15.81;39.71
78615;BME280;67937;52.488;20.952;2023-04-30T10:48:56;100886.55;;;15.84;40.03
78615;BME280;67937;52.488;20.952;2023-04-30T10:51:47;100882.61;;;15.94;39.67
78615;BME280;67937;52.488;20.952;2023-04-30T10:54:15;100893.18;;;15.97;39.17
78615;BME280;67937;52.488;20.952;2023-04-30T10:56:47;100888.05;;;15.98;39.30
78615;BME280;67937;52.488;20.952;2023-04-30T10:59:15;100890.19;;;16.04;39.53
78615;BME280;67937;52.488;20.952;2023-04-30T11:01:57;100887.45;;;16.12;39.48
78615;BME280;67937;52.488;20.952;2023-04-30T11:04:26;100892.82;;;16.23;39.15
78615;BME280;67937;52.488;20.952;2023-04-30T11:07:06;100893.38;;;16.22;38.84
78615;BME280;67937;52.488;20.952;2023-04-30T11:09:43;100886.25;;;16.23;38.41
78615;BME280;67937;52.488;20.952;2023-04-30T11:12:19;100886.10;;;16.26;38.63
78615;BME280;67937;52.488;20.952;2023-04-30T11:14:48;100890.67;;;16.30;39.20
78615;BME280;67937;52.488;20.952;2023-04-30T11:17:21;100890.24;;;16.37;38.14
78615;BME280;67937;52.488;20.952;2023-04-30T11:19:51;100897.48;;;16.32;37.38
78615;BME280;67937;52.488;20.952;2023-04-30T11:22:22;100900.24;;;16.27;38.04
78615;BME280;67937;52.488;20.952;2023-04-30T11:27:30;100895.27;;;16.48;38.15
78615;BME280;67937;52.488;20.952;2023-04-30T11:29:58;100898.98;;;16.56;38.52
78615;BME280;67937;52.488;20.952;2023-04-30T11:32:34;100894.09;;;16.60;38.94
78615;BME280;67937;52.488;20.952;2023-04-30T11:35:04;100893.83;;;16.70;38.66
78615;BME280;67937;52.488;20.952;2023-04-30T11:37:35;100891.73;;;16.81;38.56
78615;BME280;67937;52.488;20.952;2023-04-30T11:40:06;100893.42;;;16.87;38.62
78615;BME280;67937;52.488;20.952;2023-04-30T11:42:37;100898.17;;;16.95;37.49
78615;BME280;67937;52.488;20.952;2023-04-30T11:45:07;100901.88;;;16.87;37.78
78615;BME280;67937;52.488;20.952;2023-04-30T11:47:52;100906.33;;;16.83;36.59
78615;BME280;67937;52.488;20.952;2023-04-30T11:50:22;100905.84;;;16.84;37.48
78615;BME280;67937;52.488;20.952;2023-04-30T11:52:56;100904.80;;;16.93;36.45
78615;BME280;67937;52.488;20.952;2023-04-30T11:55:25;100903.48;;;16.87;37.02
78615;BME280;67937;52.488;20.952;2023-04-30T11:57:55;100904.80;;;16.86;37.30
78615;BME280;67937;52.488;20.952;2023-04-30T12:00:29;100902.40;;;16.94;37.91
78615;BME280;67937;52.488;20.952;2023-04-30T12:03:01;100905.71;;;17.00;37.61
78615;BME280;67937;52.488;20.952;2023-04-30T12:05:30;100904.47;;;16.91;37.59
78615;BME280;67937;52.488;20.952;2023-04-30T12:08:07;100912.54;;;16.87;37.62
78615;BME280;67937;52.488;20.952;2023-04-30T12:10:36;100913.55;;;16.88;37.16
78615;BME280;67937;52.488;20.952;2023-04-30T12:13:04;100907.58;;;16.76;36.20
78615;BME280;67937;52.488;20.952;2023-04-30T12:15:32;100912.82;;;16.73;37.35
78615;BME280;67937;52.488;20.952;2023-04-30T12:18:10;100917.69;;;16.87;37.04
78615;BME280;67937;52.488;20.952;2023-04-30T12:20:40;100918.91;;;16.86;36.83
78615;BME280;67937;52.488;20.952;2023-04-30T12:23:08;100920.48;;;16.91;36.47
78615;BME280;67937;52.488;20.952;2023-04-30T12:25:41;100914.20;;;16.77;35.01
78615;BME280;67937;52.488;20.952;2023-04-30T12:28:09;100911.06;;;16.75;36.52
78615;BME280;67937;52.488;20.952;2023-04-30T12:30:38;100911.42;;;16.94;36.82
78615;BME280;67937;52.488;20.952;2023-04-30T12:33:09;100910.52;;;17.00;36.72
78615;BME280;67937;52.488;20.952;2023-04-30T12:35:41;100916.16;;;17.03;37.02
78615;BME280;67937;52.488;20.952;2023-04-30T12:38:12;100921.12;;;17.07;37.09
78615;BME280;67937;52.488;20.952;2023-04-30T12:40:46;100923.05;;;17.09;36.57
78615;BME280;67937;52.488;20.952;2023-04-30T12:43:16;100916.17;;;17.10;37.01
78615;BME280;67937;52.488;20.952;2023-04-30T12:45:48;100917.55;;;17.18;36.93
78615;BME280;67937;52.488;20.952;2023-04-30T12:48:19;100914.06;;;17.11;36.77
78615;BME280;67937;52.488;20.952;2023-04-30T12:51:01;100906.15;;;17.05;36.70
78615;BME280;67937;52.488;20.952;2023-04-30T12:53:30;100908.25;;;17.00;36.87
78615;BME280;67937;52.488;20.952;2023-04-30T12:56:16;100908.55;;;17.02;36.73
78615;BME280;67937;52.488;20.952;2023-04-30T12:58:46;100906.25;;;17.05;36.30
78615;BME280;67937;52.488;20.952;2023-04-30T13:01:18;100911.33;;;16.99;33.77
78615;BME280;67937;52.488;20.952;2023-04-30T13:03:47;100909.56;;;16.83;34.19
78615;BME280;67937;52.488;20.952;2023-04-30T13:06:15;100910.30;;;16.86;34.30
78615;BME280;67937;52.488;20.952;2023-04-30T13:08:44;100908.50;;;16.95;34.85
78615;BME280;67937;52.488;20.952;2023-04-30T13:11:12;100906.46;;;17.00;35.58